메인 페이지
METAR-TAF:

METAR-TAF

공항 :

슬라이고, 아일랜드

위도: 54-16-49N, 경도: 8-35-57W, 고도: 3m

현재 날씨관측

예보는 27분 전, 08:30시(UTC)에 발표되었습니다.
9kt, 순간 최대 풍속 19kt남동풍과 남남서풍을 오가는
온도 13°C
기압 1005 hPa
시정 10km 이상
고도 1500ft 상공 흐림

METAR: EISG 210830Z 17009G19KT 130V210 9999 OVC015 13/// Q1005

시각: 09:57 (08:57 UTC)

예보

예보는 57분 전, 08:00시(UTC)에 발표되었습니다.
예보 대상 시간: 21일 09시부터 21일 18시까지 (UTC)
남남동10kt
시정 10km 이상
고도 1000ft 상공 구름 조금
고도 1800ft 상공 구름 많음
일시적
21일 09시부터 21일 15시까지 (UTC)
시정: 3000m
고도 1200ft 상공 구름 많음
약한비
확률 30% :
일시적
21일 11시부터 21일 13시까지 (UTC)
고도 700ft 상공 구름 많음
전환 중
21일 13시부터 21일 15시까지 (UTC)
서북서10kt

TAF: EISG 210800Z 2109/2118 16010KT 9999 FEW010 BKN018 TEMPO 2109/2115 3000 -RA BKN012 PROB30 TEMPO 2111/2113 RA BKN007 BECMG 2113/2115 29010KT

4,000개 이상의 공항 관측 자료 및 예보 (METAR 및 TAF 보고).

지도상에서 검색 가능한 기상관측소가 노란 점과 빨간 점으로 표시되어 있습니다.

기상관측소 명을 보려면 표시 위로 마우스를 이동하세요.

날씨 관측과 예보를 보려면 클릭하세요.

지도 변경 : 확대하려면 엑스 표시가 있는 녹색 버튼, 축소하려면 빼기 표시가 있는 녹색 버튼, 다음 페이지의 지도를 보려면 녹색 화살표를 클릭하세요.


METAR-TAF: